Big Chimney, West Virginia
Current Conditions -  °F | °C
As of 10:54 PM on Tuesday 25 Nov 2014 (Local Time) from KCRW Reporting Station
Overcast Overcast  
Wind Chill: 38°   Ceiling: 20000
Heat Index: 41°   Visibility: 10mi
Dew Point: 28°   Wind: 5mph
Humidity: 60%   Direction: NA
Pressure: 30.13"   Gusts: NA
Location:  38.4204°N, 81.5903°W
Report Text: KCRW 260354Z VRB04KT 10SM OVC200 05/M02 A3013 RMK AO2 SLP206 T00501022
Loading
Personal Weather Stations






























Interactive Weather Map New forecast layout! Learn more

10-Day Weather Forecast

Advertisements
Track Severe Weather on mobile